sensor_id;sensor_type;location;lat;lon;timestamp;P1;durP1;ratioP1;P2;durP2;ratioP2
74957;SDS011;63741;42.624;26.276;2023-05-09T00:00:44;12.45;;;5.22;;
74957;SDS011;63741;42.624;26.276;2023-05-09T00:03:11;7.57;;;4.97;;
74957;SDS011;63741;42.624;26.276;2023-05-09T00:05:40;7.60;;;4.78;;
74957;SDS011;63741;42.624;26.276;2023-05-09T00:08:07;8.88;;;4.63;;
74957;SDS011;63741;42.624;26.276;2023-05-09T00:10:34;8.40;;;5.50;;
74957;SDS011;63741;42.624;26.276;2023-05-09T00:13:01;7.35;;;4.88;;
74957;SDS011;63741;42.624;26.276;2023-05-09T00:15:28;8.60;;;4.50;;
74957;SDS011;63741;42.624;26.276;2023-05-09T00:17:55;6.88;;;4.32;;
74957;SDS011;63741;42.624;26.276;2023-05-09T00:20:22;5.53;;;3.95;;
74957;SDS011;63741;42.624;26.276;2023-05-09T00:22:49;8.57;;;5.03;;
74957;SDS011;63741;42.624;26.276;2023-05-09T00:25:16;6.30;;;4.60;;
74957;SDS011;63741;42.624;26.276;2023-05-09T00:27:43;7.85;;;4.32;;
74957;SDS011;63741;42.624;26.276;2023-05-09T00:30:10;8.05;;;4.45;;
74957;SDS011;63741;42.624;26.276;2023-05-09T00:32:37;7.25;;;4.85;;
74957;SDS011;63741;42.624;26.276;2023-05-09T00:35:07;7.10;;;5.20;;
74957;SDS011;63741;42.624;26.276;2023-05-09T00:37:35;7.35;;;4.88;;
74957;SDS011;63741;42.624;26.276;2023-05-09T00:40:03;9.82;;;5.47;;
74957;SDS011;63741;42.624;26.276;2023-05-09T00:42:31;10.50;;;5.95;;
74957;SDS011;63741;42.624;26.276;2023-05-09T00:44:59;10.55;;;5.55;;
74957;SDS011;63741;42.624;26.276;2023-05-09T00:47:26;9.30;;;5.35;;
74957;SDS011;63741;42.624;26.276;2023-05-09T00:49:55;9.05;;;5.40;;
74957;SDS011;63741;42.624;26.276;2023-05-09T00:52:23;7.97;;;5.18;;
74957;SDS011;63741;42.624;26.276;2023-05-09T00:54:52;7.22;;;4.45;;
74957;SDS011;63741;42.624;26.276;2023-05-09T00:57:20;6.50;;;4.38;;
74957;SDS011;63741;42.624;26.276;2023-05-09T00:59:48;8.70;;;4.00;;
74957;SDS011;63741;42.624;26.276;2023-05-09T01:02:16;7.70;;;3.33;;
74957;SDS011;63741;42.624;26.276;2023-05-09T01:04:44;5.65;;;3.33;;
74957;SDS011;63741;42.624;26.276;2023-05-09T01:15:59;6.90;;;3.03;;
74957;SDS011;63741;42.624;26.276;2023-05-09T01:21:16;7.88;;;3.40;;
74957;SDS011;63741;42.624;26.276;2023-05-09T01:23:58;6.53;;;3.28;;
74957;SDS011;63741;42.624;26.276;2023-05-09T01:29:46;7.30;;;3.20;;
74957;SDS011;63741;42.624;26.276;2023-05-09T01:32:17;9.07;;;3.08;;
74957;SDS011;63741;42.624;26.276;2023-05-09T01:37:17;10.13;;;3.58;;
74957;SDS011;63741;42.624;26.276;2023-05-09T01:39:47;5.65;;;2.97;;
74957;SDS011;63741;42.624;26.276;2023-05-09T01:42:19;6.20;;;3.15;;
74957;SDS011;63741;42.624;26.276;2023-05-09T01:44:46;9.32;;;3.55;;
74957;SDS011;63741;42.624;26.276;2023-05-09T01:47:15;8.35;;;3.30;;
74957;SDS011;63741;42.624;26.276;2023-05-09T01:49:45;7.03;;;3.58;;
74957;SDS011;63741;42.624;26.276;2023-05-09T01:52:14;8.93;;;3.58;;
74957;SDS011;63741;42.624;26.276;2023-05-09T01:54:43;5.85;;;3.70;;
74957;SDS011;63741;42.624;26.276;2023-05-09T01:57:11;9.30;;;3.65;;
74957;SDS011;63741;42.624;26.276;2023-05-09T01:59:40;6.78;;;3.63;;
74957;SDS011;63741;42.624;26.276;2023-05-09T02:02:10;9.45;;;3.47;;
74957;SDS011;63741;42.624;26.276;2023-05-09T02:04:37;5.68;;;2.95;;
74957;SDS011;63741;42.624;26.276;2023-05-09T02:07:07;5.25;;;3.30;;
74957;SDS011;63741;42.624;26.276;2023-05-09T02:09:34;4.97;;;2.90;;
74957;SDS011;63741;42.624;26.276;2023-05-09T02:12:02;5.50;;;3.20;;
74957;SDS011;63741;42.624;26.276;2023-05-09T02:14:30;4.38;;;3.20;;
74957;SDS011;63741;42.624;26.276;2023-05-09T02:16:59;6.40;;;3.15;;
74957;SDS011;63741;42.624;26.276;2023-05-09T02:19:32;5.88;;;3.70;;
74957;SDS011;63741;42.624;26.276;2023-05-09T02:22:01;6.20;;;3.63;;
74957;SDS011;63741;42.624;26.276;2023-05-09T02:24:31;5.78;;;3.50;;
74957;SDS011;63741;42.624;26.276;2023-05-09T02:26:59;8.35;;;4.22;;
74957;SDS011;63741;42.624;26.276;2023-05-09T02:29:39;6.82;;;3.88;;
74957;SDS011;63741;42.624;26.276;2023-05-09T02:32:10;7.38;;;4.25;;
74957;SDS011;63741;42.624;26.276;2023-05-09T02:34:41;7.25;;;4.07;;
74957;SDS011;63741;42.624;26.276;2023-05-09T02:37:09;8.75;;;4.15;;
74957;SDS011;63741;42.624;26.276;2023-05-09T02:39:36;7.20;;;4.15;;
74957;SDS011;63741;42.624;26.276;2023-05-09T02:42:04;8.95;;;4.38;;
74957;SDS011;63741;42.624;26.276;2023-05-09T02:44:33;6.60;;;4.15;;
74957;SDS011;63741;42.624;26.276;2023-05-09T02:47:01;7.20;;;4.47;;
74957;SDS011;63741;42.624;26.276;2023-05-09T02:49:29;7.05;;;4.20;;
74957;SDS011;63741;42.624;26.276;2023-05-09T02:51:59;8.50;;;4.18;;
74957;SDS011;63741;42.624;26.276;2023-05-09T02:54:27;6.65;;;4.43;;
74957;SDS011;63741;42.624;26.276;2023-05-09T02:56:54;8.68;;;4.43;;
74957;SDS011;63741;42.624;26.276;2023-05-09T02:59:21;9.27;;;5.07;;
74957;SDS011;63741;42.624;26.276;2023-05-09T03:01:48;6.72;;;4.25;;
74957;SDS011;63741;42.624;26.276;2023-05-09T03:04:16;5.60;;;4.00;;
74957;SDS011;63741;42.624;26.276;2023-05-09T03:06:43;10.18;;;3.97;;
74957;SDS011;63741;42.624;26.276;2023-05-09T03:09:11;8.25;;;4.03;;
74957;SDS011;63741;42.624;26.276;2023-05-09T03:11:38;6.50;;;3.83;;
74957;SDS011;63741;42.624;26.276;2023-05-09T03:14:05;6.35;;;3.50;;
74957;SDS011;63741;42.624;26.276;2023-05-09T03:16:33;6.78;;;4.15;;
74957;SDS011;63741;42.624;26.276;2023-05-09T03:19:02;6.03;;;4.18;;
74957;SDS011;63741;42.624;26.276;2023-05-09T03:21:29;8.02;;;4.60;;
74957;SDS011;63741;42.624;26.276;2023-05-09T03:23:57;7.75;;;4.78;;
74957;SDS011;63741;42.624;26.276;2023-05-09T03:26:24;10.15;;;4.57;;
74957;SDS011;63741;42.624;26.276;2023-05-09T03:28:53;8.15;;;4.40;;
74957;SDS011;63741;42.624;26.276;2023-05-09T03:31:20;6.22;;;4.03;;
74957;SDS011;63741;42.624;26.276;2023-05-09T03:33:47;7.63;;;3.97;;
74957;SDS011;63741;42.624;26.276;2023-05-09T03:36:14;7.57;;;3.70;;
74957;SDS011;63741;42.624;26.276;2023-05-09T03:38:42;4.60;;;3.53;;
74957;SDS011;63741;42.624;26.276;2023-05-09T03:41:11;6.40;;;3.50;;
74957;SDS011;63741;42.624;26.276;2023-05-09T03:43:38;4.68;;;3.05;;
74957;SDS011;63741;42.624;26.276;2023-05-09T03:46:05;4.18;;;3.00;;
74957;SDS011;63741;42.624;26.276;2023-05-09T03:48:33;6.93;;;3.33;;
74957;SDS011;63741;42.624;26.276;2023-05-09T03:51:00;5.30;;;3.35;;
74957;SDS011;63741;42.624;26.276;2023-05-09T03:53:30;5.70;;;3.15;;
74957;SDS011;63741;42.624;26.276;2023-05-09T03:55:57;5.20;;;3.30;;
74957;SDS011;63741;42.624;26.276;2023-05-09T03:58:25;5.97;;;3.45;;
74957;SDS011;63741;42.624;26.276;2023-05-09T04:00:53;4.90;;;3.42;;
74957;SDS011;63741;42.624;26.276;2023-05-09T04:03:23;5.13;;;3.60;;
74957;SDS011;63741;42.624;26.276;2023-05-09T04:05:52;4.55;;;3.40;;
74957;SDS011;63741;42.624;26.276;2023-05-09T04:08:33;4.57;;;3.67;;
74957;SDS011;63741;42.624;26.276;2023-05-09T04:11:02;6.22;;;4.35;;
74957;SDS011;63741;42.624;26.276;2023-05-09T04:13:29;7.10;;;4.55;;
74957;SDS011;63741;42.624;26.276;2023-05-09T04:16:00;6.13;;;4.80;;
74957;SDS011;63741;42.624;26.276;2023-05-09T04:18:29;7.18;;;4.93;;
74957;SDS011;63741;42.624;26.276;2023-05-09T04:20:57;8.80;;;5.13;;
74957;SDS011;63741;42.624;26.276;2023-05-09T04:23:24;9.23;;;5.78;;
74957;SDS011;63741;42.624;26.276;2023-05-09T04:25:54;8.20;;;5.70;;
74957;SDS011;63741;42.624;26.276;2023-05-09T04:28:23;9.05;;;5.72;;
74957;SDS011;63741;42.624;26.276;2023-05-09T04:30:50;6.68;;;5.13;;
74957;SDS011;63741;42.624;26.276;2023-05-09T04:33:18;7.03;;;4.88;;
74957;SDS011;63741;42.624;26.276;2023-05-09T04:35:47;7.82;;;4.88;;
74957;SDS011;63741;42.624;26.276;2023-05-09T04:38:14;7.57;;;4.95;;
74957;SDS011;63741;42.624;26.276;2023-05-09T04:40:43;9.70;;;4.85;;
74957;SDS011;63741;42.624;26.276;2023-05-09T04:43:10;19.13;;;5.30;;
74957;SDS011;63741;42.624;26.276;2023-05-09T04:45:37;9.52;;;4.70;;
74957;SDS011;63741;42.624;26.276;2023-05-09T04:48:04;8.48;;;4.07;;
74957;SDS011;63741;42.624;26.276;2023-05-09T04:50:32;12.45;;;4.53;;
74957;SDS011;63741;42.624;26.276;2023-05-09T04:52:58;12.20;;;4.22;;
74957;SDS011;63741;42.624;26.276;2023-05-09T04:55:26;5.65;;;3.58;;
74957;SDS011;63741;42.624;26.276;2023-05-09T04:57:54;4.88;;;3.28;;
74957;SDS011;63741;42.624;26.276;2023-05-09T05:00:21;6.93;;;3.40;;
74957;SDS011;63741;42.624;26.276;2023-05-09T05:02:48;7.20;;;2.70;;
74957;SDS011;63741;42.624;26.276;2023-05-09T05:05:15;4.50;;;2.70;;
74957;SDS011;63741;42.624;26.276;2023-05-09T05:07:43;6.55;;;3.00;;
74957;SDS011;63741;42.624;26.276;2023-05-09T05:10:16;3.38;;;2.58;;
74957;SDS011;63741;42.624;26.276;2023-05-09T05:12:48;3.97;;;2.70;;
74957;SDS011;63741;42.624;26.276;2023-05-09T05:15:14;6.13;;;3.08;;
74957;SDS011;63741;42.624;26.276;2023-05-09T05:17:44;5.18;;;3.10;;
74957;SDS011;63741;42.624;26.276;2023-05-09T05:20:12;6.20;;;3.13;;
74957;SDS011;63741;42.624;26.276;2023-05-09T05:22:43;4.57;;;3.20;;
74957;SDS011;63741;42.624;26.276;2023-05-09T05:25:10;6.28;;;3.40;;
74957;SDS011;63741;42.624;26.276;2023-05-09T05:27:39;5.03;;;3.28;;
74957;SDS011;63741;42.624;26.276;2023-05-09T05:30:08;4.45;;;3.10;;
74957;SDS011;63741;42.624;26.276;2023-05-09T05:32:36;5.28;;;3.13;;
74957;SDS011;63741;42.624;26.276;2023-05-09T05:35:03;4.43;;;3.40;;
74957;SDS011;63741;42.624;26.276;2023-05-09T05:37:33;6.28;;;3.67;;
74957;SDS011;63741;42.624;26.276;2023-05-09T05:40:01;6.00;;;3.60;;
74957;SDS011;63741;42.624;26.276;2023-05-09T05:42:29;6.80;;;4.13;;
74957;SDS011;63741;42.624;26.276;2023-05-09T05:44:56;5.95;;;4.05;;
74957;SDS011;63741;42.624;26.276;2023-05-09T05:47:23;5.78;;;4.32;;
74957;SDS011;63741;42.624;26.276;2023-05-09T05:49:51;5.05;;;3.95;;
74957;SDS011;63741;42.624;26.276;2023-05-09T05:52:18;6.78;;;3.97;;
74957;SDS011;63741;42.624;26.276;2023-05-09T05:54:45;4.95;;;3.78;;
74957;SDS011;63741;42.624;26.276;2023-05-09T05:57:12;4.90;;;4.05;;
74957;SDS011;63741;42.624;26.276;2023-05-09T05:59:39;5.93;;;3.88;;
74957;SDS011;63741;42.624;26.276;2023-05-09T06:02:06;5.90;;;3.58;;
74957;SDS011;63741;42.624;26.276;2023-05-09T06:04:33;7.18;;;4.05;;
74957;SDS011;63741;42.624;26.276;2023-05-09T06:07:00;6.25;;;4.03;;
74957;SDS011;63741;42.624;26.276;2023-05-09T06:09:27;4.97;;;3.60;;
74957;SDS011;63741;42.624;26.276;2023-05-09T06:11:54;8.05;;;3.80;;
74957;SDS011;63741;42.624;26.276;2023-05-09T06:14:21;6.78;;;3.78;;
74957;SDS011;63741;42.624;26.276;2023-05-09T06:16:48;5.20;;;3.33;;
74957;SDS011;63741;42.624;26.276;2023-05-09T06:19:15;5.22;;;3.53;;
74957;SDS011;63741;42.624;26.276;2023-05-09T06:21:42;4.38;;;3.28;;
74957;SDS011;63741;42.624;26.276;2023-05-09T06:24:09;6.03;;;3.33;;
74957;SDS011;63741;42.624;26.276;2023-05-09T06:26:49;4.10;;;3.40;;
74957;SDS011;63741;42.624;26.276;2023-05-09T06:29:16;3.72;;;3.17;;
74957;SDS011;63741;42.624;26.276;2023-05-09T06:31:43;4.00;;;3.45;;
74957;SDS011;63741;42.624;26.276;2023-05-09T06:34:10;4.40;;;3.22;;
74957;SDS011;63741;42.624;26.276;2023-05-09T06:36:36;4.13;;;3.25;;
74957;SDS011;63741;42.624;26.276;2023-05-09T06:39:03;3.88;;;3.13;;
74957;SDS011;63741;42.624;26.276;2023-05-09T06:41:30;5.00;;;3.40;;
74957;SDS011;63741;42.624;26.276;2023-05-09T06:43:57;4.10;;;3.15;;
74957;SDS011;63741;42.624;26.276;2023-05-09T06:46:24;6.53;;;3.83;;
74957;SDS011;63741;42.624;26.276;2023-05-09T06:48:51;6.13;;;3.40;;
74957;SDS011;63741;42.624;26.276;2023-05-09T06:51:18;4.82;;;3.13;;
74957;SDS011;63741;42.624;26.276;2023-05-09T06:53:45;7.50;;;3.15;;
74957;SDS011;63741;42.624;26.276;2023-05-09T06:56:12;4.15;;;2.85;;
74957;SDS011;63741;42.624;26.276;2023-05-09T06:58:39;8.85;;;3.35;;
74957;SDS011;63741;42.624;26.276;2023-05-09T07:01:06;6.15;;;2.80;;
74957;SDS011;63741;42.624;26.276;2023-05-09T07:03:33;4.63;;;2.97;;
74957;SDS011;63741;42.624;26.276;2023-05-09T07:06:00;5.47;;;3.03;;
74957;SDS011;63741;42.624;26.276;2023-05-09T07:08:27;9.52;;;5.03;;
74957;SDS011;63741;42.624;26.276;2023-05-09T07:10:54;12.15;;;5.50;;
74957;SDS011;63741;42.624;26.276;2023-05-09T07:13:21;11.18;;;4.45;;
74957;SDS011;63741;42.624;26.276;2023-05-09T07:15:48;14.48;;;4.95;;
74957;SDS011;63741;42.624;26.276;2023-05-09T07:18:15;8.60;;;4.38;;
74957;SDS011;63741;42.624;26.276;2023-05-09T07:20:42;11.60;;;4.80;;
74957;SDS011;63741;42.624;26.276;2023-05-09T07:23:09;6.68;;;4.25;;
74957;SDS011;63741;42.624;26.276;2023-05-09T07:25:36;6.40;;;3.58;;
74957;SDS011;63741;42.624;26.276;2023-05-09T07:28:02;6.60;;;3.63;;
74957;SDS011;63741;42.624;26.276;2023-05-09T07:30:30;5.20;;;2.58;;
74957;SDS011;63741;42.624;26.276;2023-05-09T07:32:57;2.95;;;2.00;;
74957;SDS011;63741;42.624;26.276;2023-05-09T07:35:23;3.78;;;2.50;;
74957;SDS011;63741;42.624;26.276;2023-05-09T07:37:51;5.00;;;2.28;;
74957;SDS011;63741;42.624;26.276;2023-05-09T07:40:18;3.42;;;2.20;;
74957;SDS011;63741;42.624;26.276;2023-05-09T07:42:45;3.47;;;2.00;;
74957;SDS011;63741;42.624;26.276;2023-05-09T07:45:15;2.90;;;1.90;;
74957;SDS011;63741;42.624;26.276;2023-05-09T07:47:44;2.30;;;1.70;;
74957;SDS011;63741;42.624;26.276;2023-05-09T07:50:11;2.70;;;2.17;;
74957;SDS011;63741;42.624;26.276;2023-05-09T07:52:38;2.45;;;1.75;;
74957;SDS011;63741;42.624;26.276;2023-05-09T07:55:05;2.85;;;1.73;;
74957;SDS011;63741;42.624;26.276;2023-05-09T07:57:32;3.00;;;1.67;;
74957;SDS011;63741;42.624;26.276;2023-05-09T07:59:59;3.28;;;1.90;;
74957;SDS011;63741;42.624;26.276;2023-05-09T08:02:26;3.20;;;1.63;;
74957;SDS011;63741;42.624;26.276;2023-05-09T08:04:53;3.42;;;1.80;;
74957;SDS011;63741;42.624;26.276;2023-05-09T08:07:20;2.55;;;1.60;;
74957;SDS011;63741;42.624;26.276;2023-05-09T08:09:47;2.72;;;1.50;;
74957;SDS011;63741;42.624;26.276;2023-05-09T08:12:14;4.55;;;2.90;;
74957;SDS011;63741;42.624;26.276;2023-05-09T08:14:40;13.80;;;6.38;;
74957;SDS011;63741;42.624;26.276;2023-05-09T08:17:07;44.05;;;21.27;;
74957;SDS011;63741;42.624;26.276;2023-05-09T08:19:34;30.20;;;15.30;;
74957;SDS011;63741;42.624;26.276;2023-05-09T08:22:01;6.78;;;3.90;;
74957;SDS011;63741;42.624;26.276;2023-05-09T08:24:28;4.85;;;3.78;;
74957;SDS011;63741;42.624;26.276;2023-05-09T08:26:56;6.43;;;4.03;;
74957;SDS011;63741;42.624;26.276;2023-05-09T08:29:22;7.65;;;3.85;;
74957;SDS011;63741;42.624;26.276;2023-05-09T08:31:49;7.00;;;4.38;;
74957;SDS011;63741;42.624;26.276;2023-05-09T08:34:17;3.60;;;2.38;;
74957;SDS011;63741;42.624;26.276;2023-05-09T08:36:43;2.75;;;2.03;;
74957;SDS011;63741;42.624;26.276;2023-05-09T08:39:12;5.47;;;3.50;;
74957;SDS011;63741;42.624;26.276;2023-05-09T08:41:39;4.57;;;3.50;;
74957;SDS011;63741;42.624;26.276;2023-05-09T08:44:08;4.65;;;2.70;;
74957;SDS011;63741;42.624;26.276;2023-05-09T08:46:35;5.80;;;2.80;;
74957;SDS011;63741;42.624;26.276;2023-05-09T08:49:05;4.38;;;2.70;;
74957;SDS011;63741;42.624;26.276;2023-05-09T08:51:33;5.32;;;3.03;;
74957;SDS011;63741;42.624;26.276;2023-05-09T08:54:01;3.72;;;2.38;;
74957;SDS011;63741;42.624;26.276;2023-05-09T08:56:29;3.58;;;2.20;;
74957;SDS011;63741;42.624;26.276;2023-05-09T08:58:57;3.47;;;1.90;;
74957;SDS011;63741;42.624;26.276;2023-05-09T09:01:24;7.03;;;3.42;;
74957;SDS011;63741;42.624;26.276;2023-05-09T09:03:54;4.85;;;3.10;;
74957;SDS011;63741;42.624;26.276;2023-05-09T09:06:21;4.65;;;2.75;;
74957;SDS011;63741;42.624;26.276;2023-05-09T09:08:51;4.60;;;2.20;;
74957;SDS011;63741;42.624;26.276;2023-05-09T09:11:21;6.15;;;2.80;;
74957;SDS011;63741;42.624;26.276;2023-05-09T09:13:51;3.85;;;2.20;;
74957;SDS011;63741;42.624;26.276;2023-05-09T09:16:20;4.85;;;2.70;;
74957;SDS011;63741;42.624;26.276;2023-05-09T09:18:49;3.58;;;2.40;;
74957;SDS011;63741;42.624;26.276;2023-05-09T09:21:22;5.70;;;3.38;;
74957;SDS011;63741;42.624;26.276;2023-05-09T09:23:49;4.55;;;2.88;;
74957;SDS011;63741;42.624;26.276;2023-05-09T09:26:17;6.43;;;3.20;;
74957;SDS011;63741;42.624;26.276;2023-05-09T09:28:44;5.72;;;3.00;;
74957;SDS011;63741;42.624;26.276;2023-05-09T09:31:21;6.07;;;3.13;;
74957;SDS011;63741;42.624;26.276;2023-05-09T09:34:00;5.50;;;2.97;;
74957;SDS011;63741;42.624;26.276;2023-05-09T09:36:28;5.53;;;3.05;;
74957;SDS011;63741;42.624;26.276;2023-05-09T09:38:57;4.60;;;3.00;;
74957;SDS011;63741;42.624;26.276;2023-05-09T09:41:36;6.28;;;3.22;;
74957;SDS011;63741;42.624;26.276;2023-05-09T09:44:07;8.40;;;3.58;;
74957;SDS011;63741;42.624;26.276;2023-05-09T09:46:45;11.25;;;4.35;;
74957;SDS011;63741;42.624;26.276;2023-05-09T09:49:21;6.13;;;3.95;;
74957;SDS011;63741;42.624;26.276;2023-05-09T09:51:53;7.22;;;3.13;;
74957;SDS011;63741;42.624;26.276;2023-05-09T09:54:21;4.30;;;2.85;;
74957;SDS011;63741;42.624;26.276;2023-05-09T09:56:51;5.18;;;3.20;;
74957;SDS011;63741;42.624;26.276;2023-05-09T09:59:20;4.35;;;2.92;;
74957;SDS011;63741;42.624;26.276;2023-05-09T10:04:33;5.65;;;2.85;;
74957;SDS011;63741;42.624;26.276;2023-05-09T10:07:03;4.38;;;2.83;;
74957;SDS011;63741;42.624;26.276;2023-05-09T10:09:32;4.43;;;2.90;;
74957;SDS011;63741;42.624;26.276;2023-05-09T10:12:02;5.10;;;3.00;;
74957;SDS011;63741;42.624;26.276;2023-05-09T10:14:31;6.47;;;3.20;;
74957;SDS011;63741;42.624;26.276;2023-05-09T10:17:01;4.90;;;2.78;;
74957;SDS011;63741;42.624;26.276;2023-05-09T10:19:30;5.30;;;2.65;;
74957;SDS011;63741;42.624;26.276;2023-05-09T10:22:02;4.50;;;2.88;;
74957;SDS011;63741;42.624;26.276;2023-05-09T10:27:10;4.15;;;2.67;;
74957;SDS011;63741;42.624;26.276;2023-05-09T10:29:48;3.63;;;2.50;;
74957;SDS011;63741;42.624;26.276;2023-05-09T10:35:04;3.00;;;2.10;;
74957;SDS011;63741;42.624;26.276;2023-05-09T10:37:33;4.03;;;2.78;;
74957;SDS011;63741;42.624;26.276;2023-05-09T10:40:02;4.68;;;2.83;;
74957;SDS011;63741;42.624;26.276;2023-05-09T10:42:29;6.43;;;2.67;;
74957;SDS011;63741;42.624;26.276;2023-05-09T10:44:57;6.75;;;2.53;;
74957;SDS011;63741;42.624;26.276;2023-05-09T10:47:24;4.72;;;2.38;;
74957;SDS011;63741;42.624;26.276;2023-05-09T10:49:53;4.43;;;2.47;;
74957;SDS011;63741;42.624;26.276;2023-05-09T10:52:20;3.67;;;2.22;;
74957;SDS011;63741;42.624;26.276;2023-05-09T10:55:01;4.05;;;2.20;;
74957;SDS011;63741;42.624;26.276;2023-05-09T10:57:30;5.88;;;2.35;;
74957;SDS011;63741;42.624;26.276;2023-05-09T10:59:57;5.60;;;2.70;;
74957;SDS011;63741;42.624;26.276;2023-05-09T11:02:25;7.55;;;3.25;;
74957;SDS011;63741;42.624;26.276;2023-05-09T11:07:40;7.13;;;2.72;;
74957;SDS011;63741;42.624;26.276;2023-05-09T11:10:09;4.60;;;2.80;;
74957;SDS011;63741;42.624;26.276;2023-05-09T11:12:56;3.35;;;2.33;;
74957;SDS011;63741;42.624;26.276;2023-05-09T11:15:24;3.72;;;2.20;;
74957;SDS011;63741;42.624;26.276;2023-05-09T11:18:06;7.22;;;2.75;;
74957;SDS011;63741;42.624;26.276;2023-05-09T11:20:41;3.92;;;2.40;;
74957;SDS011;63741;42.624;26.276;2023-05-09T11:23:09;6.30;;;2.00;;
74957;SDS011;63741;42.624;26.276;2023-05-09T11:25:44;3.60;;;2.00;;
74957;SDS011;63741;42.624;26.276;2023-05-09T11:28:24;4.53;;;2.13;;
74957;SDS011;63741;42.624;26.276;2023-05-09T11:33:38;5.13;;;2.03;;
74957;SDS011;63741;42.624;26.276;2023-05-09T11:41:43;4.15;;;2.30;;
74957;SDS011;63741;42.624;26.276;2023-05-09T11:44:15;18.00;;;2.47;;
74957;SDS011;63741;42.624;26.276;2023-05-09T11:46:47;6.10;;;2.38;;
74957;SDS011;63741;42.624;26.276;2023-05-09T11:49:14;4.45;;;2.50;;
74957;SDS011;63741;42.624;26.276;2023-05-09T11:51:42;3.42;;;2.40;;
74957;SDS011;63741;42.624;26.276;2023-05-09T11:54:09;5.85;;;2.97;;
74957;SDS011;63741;42.624;26.276;2023-05-09T11:56:39;5.25;;;3.08;;
74957;SDS011;63741;42.624;26.276;2023-05-09T11:59:06;6.13;;;2.90;;
74957;SDS011;63741;42.624;26.276;2023-05-09T12:01:34;5.22;;;2.78;;
74957;SDS011;63741;42.624;26.276;2023-05-09T12:04:02;4.53;;;2.28;;
74957;SDS011;63741;42.624;26.276;2023-05-09T12:06:33;5.40;;;2.30;;
74957;SDS011;63741;42.624;26.276;2023-05-09T12:09:00;3.85;;;2.50;;
74957;SDS011;63741;42.624;26.276;2023-05-09T12:11:28;6.40;;;2.38;;
74957;SDS011;63741;42.624;26.276;2023-05-09T12:13:57;4.20;;;2.00;;
74957;SDS011;63741;42.624;26.276;2023-05-09T12:16:24;3.92;;;1.98;;
74957;SDS011;63741;42.624;26.276;2023-05-09T12:18:52;6.32;;;1.90;;
74957;SDS011;63741;42.624;26.276;2023-05-09T12:21:20;4.50;;;2.00;;
74957;SDS011;63741;42.624;26.276;2023-05-09T12:23:47;4.55;;;2.08;;
74957;SDS011;63741;42.624;26.276;2023-05-09T12:26:18;4.90;;;2.30;;
74957;SDS011;63741;42.624;26.276;2023-05-09T12:28:47;3.65;;;1.85;;
74957;SDS011;63741;42.624;26.276;2023-05-09T12:31:14;5.10;;;2.30;;
74957;SDS011;63741;42.624;26.276;2023-05-09T12:33:42;3.75;;;2.38;;
74957;SDS011;63741;42.624;26.276;2023-05-09T12:36:09;7.03;;;3.47;;
74957;SDS011;63741;42.624;26.276;2023-05-09T12:38:37;7.55;;;3.63;;
74957;SDS011;63741;42.624;26.276;2023-05-09T12:41:06;8.45;;;4.78;;
74957;SDS011;63741;42.624;26.276;2023-05-09T12:43:56;6.28;;;3.53;;
74957;SDS011;63741;42.624;26.276;2023-05-09T12:46:23;6.60;;;3.90;;
74957;SDS011;63741;42.624;26.276;2023-05-09T12:48:50;8.18;;;5.05;;
74957;SDS011;63741;42.624;26.276;2023-05-09T12:51:18;9.10;;;4.88;;
74957;SDS011;63741;42.624;26.276;2023-05-09T12:53:46;6.30;;;4.35;;
74957;SDS011;63741;42.624;26.276;2023-05-09T12:56:15;7.82;;;3.92;;
74957;SDS011;63741;42.624;26.276;2023-05-09T12:58:54;6.50;;;4.13;;
74957;SDS011;63741;42.624;26.276;2023-05-09T13:01:30;7.93;;;3.80;;
74957;SDS011;63741;42.624;26.276;2023-05-09T13:04:01;7.50;;;4.22;;
74957;SDS011;63741;42.624;26.276;2023-05-09T13:06:29;6.82;;;4.55;;
74957;SDS011;63741;42.624;26.276;2023-05-09T13:08:57;6.13;;;4.15;;
74957;SDS011;63741;42.624;26.276;2023-05-09T13:11:25;5.75;;;4.05;;
74957;SDS011;63741;42.624;26.276;2023-05-09T13:13:53;7.90;;;4.35;;
74957;SDS011;63741;42.624;26.276;2023-05-09T13:16:21;5.80;;;4.40;;
74957;SDS011;63741;42.624;26.276;2023-05-09T13:18:48;5.75;;;4.20;;
74957;SDS011;63741;42.624;26.276;2023-05-09T13:21:15;7.70;;;4.35;;
74957;SDS011;63741;42.624;26.276;2023-05-09T13:23:41;5.78;;;4.07;;
74957;SDS011;63741;42.624;26.276;2023-05-09T13:26:09;10.85;;;4.28;;
74957;SDS011;63741;42.624;26.276;2023-05-09T13:28:36;5.28;;;3.60;;
74957;SDS011;63741;42.624;26.276;2023-05-09T13:31:03;5.70;;;3.80;;
74957;SDS011;63741;42.624;26.276;2023-05-09T13:33:30;6.78;;;4.20;;
74957;SDS011;63741;42.624;26.276;2023-05-09T13:35:57;6.90;;;4.00;;
74957;SDS011;63741;42.624;26.276;2023-05-09T13:38:25;10.82;;;4.30;;
74957;SDS011;63741;42.624;26.276;2023-05-09T13:40:56;4.72;;;3.70;;
74957;SDS011;63741;42.624;26.276;2023-05-09T13:43:23;6.63;;;3.55;;
74957;SDS011;63741;42.624;26.276;2023-05-09T13:45:50;8.15;;;3.70;;
74957;SDS011;63741;42.624;26.276;2023-05-09T13:48:17;6.07;;;3.85;;
74957;SDS011;63741;42.624;26.276;2023-05-09T13:50:44;11.32;;;3.65;;
74957;SDS011;63741;42.624;26.276;2023-05-09T13:53:12;6.70;;;3.35;;
74957;SDS011;63741;42.624;26.276;2023-05-09T13:55:38;6.80;;;3.72;;
74957;SDS011;63741;42.624;26.276;2023-05-09T13:58:05;6.35;;;4.10;;
74957;SDS011;63741;42.624;26.276;2023-05-09T14:00:33;5.28;;;3.25;;
74957;SDS011;63741;42.624;26.276;2023-05-09T14:03:02;7.47;;;4.10;;
74957;SDS011;63741;42.624;26.276;2023-05-09T14:05:33;8.75;;;5.32;;
74957;SDS011;63741;42.624;26.276;2023-05-09T14:08:00;5.38;;;4.20;;
74957;SDS011;63741;42.624;26.276;2023-05-09T14:10:27;6.03;;;3.58;;
74957;SDS011;63741;42.624;26.276;2023-05-09T14:12:54;6.53;;;3.60;;
74957;SDS011;63741;42.624;26.276;2023-05-09T14:15:22;10.48;;;5.65;;
74957;SDS011;63741;42.624;26.276;2023-05-09T14:17:49;9.95;;;5.18;;
74957;SDS011;63741;42.624;26.276;2023-05-09T14:20:16;5.05;;;3.60;;
74957;SDS011;63741;42.624;26.276;2023-05-09T14:22:43;6.07;;;4.05;;
74957;SDS011;63741;42.624;26.276;2023-05-09T14:25:10;6.13;;;3.80;;
74957;SDS011;63741;42.624;26.276;2023-05-09T14:27:37;9.95;;;5.30;;
74957;SDS011;63741;42.624;26.276;2023-05-09T14:30:04;11.80;;;4.85;;
74957;SDS011;63741;42.624;26.276;2023-05-09T14:32:32;8.15;;;3.63;;
74957;SDS011;63741;42.624;26.276;2023-05-09T14:34:59;9.15;;;3.80;;
74957;SDS011;63741;42.624;26.276;2023-05-09T14:37:26;7.32;;;3.97;;
74957;SDS011;63741;42.624;26.276;2023-05-09T14:39:54;7.30;;;3.72;;
74957;SDS011;63741;42.624;26.276;2023-05-09T14:42:21;7.20;;;3.50;;
74957;SDS011;63741;42.624;26.276;2023-05-09T14:44:47;7.03;;;3.22;;
74957;SDS011;63741;42.624;26.276;2023-05-09T14:47:15;8.07;;;3.72;;
74957;SDS011;63741;42.624;26.276;2023-05-09T14:49:42;6.97;;;3.90;;
74957;SDS011;63741;42.624;26.276;2023-05-09T14:52:09;14.85;;;4.75;;
74957;SDS011;63741;42.624;26.276;2023-05-09T14:54:36;8.15;;;4.07;;
74957;SDS011;63741;42.624;26.276;2023-05-09T14:57:03;8.50;;;4.82;;
74957;SDS011;63741;42.624;26.276;2023-05-09T14:59:32;8.98;;;5.18;;
74957;SDS011;63741;42.624;26.276;2023-05-09T15:02:02;7.32;;;4.90;;
74957;SDS011;63741;42.624;26.276;2023-05-09T15:04:29;9.43;;;4.78;;
74957;SDS011;63741;42.624;26.276;2023-05-09T15:06:57;9.38;;;4.68;;
74957;SDS011;63741;42.624;26.276;2023-05-09T15:09:24;11.30;;;4.25;;
74957;SDS011;63741;42.624;26.276;2023-05-09T15:11:52;8.30;;;3.90;;
74957;SDS011;63741;42.624;26.276;2023-05-09T15:14:20;6.82;;;4.20;;
74957;SDS011;63741;42.624;26.276;2023-05-09T15:16:47;6.13;;;4.03;;